TimeCST,TemperatureF,Dew PointF,Humidity,Sea Level PressureIn,VisibilityMPH,Wind Direction,Wind SpeedMPH,Gust SpeedMPH,PrecipitationIn,Events,Conditions,WindDirDegrees,DateUTC
12:15 AM,10.0,7.5,90,30.20,10.0,Calm,Calm,-,N/A,,Clear,0,2012-12-30 06:15:00
7:35 AM,16.9,14.0,88,30.14,10.0,SE,8.1,-,N/A,,Clear,130,2012-12-30 13:35:00
7:55 AM,17.6,14.7,88,30.13,10.0,SE,6.9,-,N/A,,Clear,130,2012-12-30 13:55:00
8:15 AM,18.1,15.4,89,30.12,10.0,SE,6.9,-,N/A,,Clear,130,2012-12-30 14:15:00
8:35 AM,18.9,15.8,88,30.11,10.0,SE,6.9,-,N/A,,Clear,140,2012-12-30 14:35:00
8:55 AM,20.3,16.5,85,30.10,10.0,SE,4.6,-,N/A,,Clear,130,2012-12-30 14:55:00
9:15 AM,22.1,17.4,82,30.10,10.0,SE,6.9,-,N/A,,Clear,130,2012-12-30 15:15:00
9:35 AM,23.7,18.1,79,30.09,10.0,SE,9.2,-,N/A,,Clear,130,2012-12-30 15:35:00
9:55 AM,25.3,19.0,77,30.08,10.0,SE,10.4,-,N/A,,Clear,140,2012-12-30 15:55:00
10:15 AM,28.0,20.1,72,30.07,10.0,SSE,10.4,-,N/A,,Clear,150,2012-12-30 16:15:00
10:35 AM,29.8,21.2,70,30.05,10.0,SE,12.7,-,N/A,,Clear,140,2012-12-30 16:35:00
10:55 AM,31.6,21.9,67,30.04,10.0,SSE,11.5,16.1,N/A,,Clear,150,2012-12-30 16:55:00
11:15 AM,32.9,23.0,67,30.04,10.0,SSE,11.5,-,N/A,,Clear,150,2012-12-30 17:15:00
11:35 AM,33.8,24.1,68,30.02,10.0,South,13.8,19.6,N/A,,Clear,170,2012-12-30 17:35:00
11:55 AM,34.0,24.6,69,30.01,10.0,South,10.4,-,N/A,,Clear,180,2012-12-30 17:55:00
12:15 PM,35.8,25.7,67,29.99,10.0,South,12.7,18.4,N/A,,Clear,180,2012-12-30 18:15:00
12:35 PM,37.4,26.4,65,29.97,10.0,South,13.8,23.0,N/A,,Clear,170,2012-12-30 18:35:00
12:55 PM,37.9,26.6,64,29.96,10.0,South,12.7,24.2,N/A,,Clear,170,2012-12-30 18:55:00
1:15 PM,38.5,27.1,64,29.94,10.0,South,11.5,18.4,N/A,,Clear,190,2012-12-30 19:15:00
1:35 PM,39.4,27.5,62,29.94,10.0,SSW,11.5,19.6,N/A,,Clear,200,2012-12-30 19:35:00
1:55 PM,40.1,26.6,59,29.94,10.0,SSW,13.8,23.0,N/A,,Clear,200,2012-12-30 19:55:00
2:15 PM,39.7,27.1,61,29.94,10.0,SSW,15.0,21.9,N/A,,Clear,210,2012-12-30 20:15:00
2:35 PM,39.6,27.3,62,29.93,10.0,SSW,12.7,18.4,N/A,,Clear,210,2012-12-30 20:35:00
2:55 PM,39.2,27.3,62,29.93,10.0,SSW,13.8,19.6,N/A,,Clear,210,2012-12-30 20:55:00
3:15 PM,39.4,27.3,62,29.94,10.0,SW,15.0,20.7,N/A,,Clear,220,2012-12-30 21:15:00
3:35 PM,38.5,27.7,65,29.94,10.0,SSW,11.5,-,N/A,,Clear,210,2012-12-30 21:35:00
3:55 PM,37.6,27.9,68,29.94,10.0,SW,11.5,-,N/A,,Clear,230,2012-12-30 21:55:00
4:15 PM,36.1,28.0,72,29.97,10.0,WSW,13.8,-,N/A,,Clear,240,2012-12-30 22:15:00
4:35 PM,35.6,27.5,72,29.98,10.0,WSW,12.7,-,N/A,,Clear,250,2012-12-30 22:35:00
4:55 PM,34.0,27.1,76,29.98,10.0,WSW,13.8,19.6,N/A,,Clear,240,2012-12-30 22:55:00
5:15 PM,33.3,26.6,77,30.00,10.0,WSW,10.4,-,N/A,,Clear,250,2012-12-30 23:15:00
5:35 PM,32.4,26.4,79,30.00,10.0,WSW,12.7,-,N/A,,Clear,250,2012-12-30 23:35:00
5:55 PM,32.0,26.1,79,30.01,10.0,WSW,11.5,-,N/A,,Clear,240,2012-12-30 23:55:00
6:15 PM,31.3,25.5,79,30.01,10.0,WSW,13.8,-,N/A,,Clear,240,2012-12-31 00:15:00
6:35 PM,30.9,25.0,79,30.02,10.0,WSW,10.4,-,N/A,,Clear,250,2012-12-31 00:35:00
6:55 PM,31.1,23.9,75,30.02,10.0,West,13.8,-,N/A,,Clear,260,2012-12-31 00:55:00
7:15 PM,30.4,23.0,74,30.03,10.0,West,10.4,-,N/A,,Clear,260,2012-12-31 01:15:00
7:35 PM,27.9,22.6,81,30.04,10.0,WNW,8.1,-,N/A,,Clear,290,2012-12-31 01:35:00
7:55 PM,25.7,22.1,86,30.04,10.0,WNW,10.4,-,N/A,,Clear,290,2012-12-31 01:55:00
8:15 PM,25.5,21.9,86,30.04,10.0,WNW,9.2,-,N/A,,Clear,290,2012-12-31 02:15:00
8:35 PM,25.7,21.2,83,30.05,10.0,West,13.8,-,N/A,,Clear,280,2012-12-31 02:35:00
8:55 PM,25.7,20.3,80,30.06,10.0,WNW,11.5,-,N/A,,Clear,290,2012-12-31 02:55:00
9:15 PM,25.7,19.9,79,30.06,10.0,NW,10.4,-,N/A,,Clear,310,2012-12-31 03:15:00
9:35 PM,25.7,19.2,76,30.06,10.0,NW,9.2,-,N/A,,Clear,310,2012-12-31 03:35:00
9:55 PM,25.2,19.4,79,30.07,10.0,NW,6.9,-,N/A,,Clear,320,2012-12-31 03:55:00
10:15 PM,24.8,18.7,78,30.07,10.0,NW,11.5,-,N/A,,Clear,310,2012-12-31 04:15:00
10:35 PM,24.4,18.1,77,30.09,10.0,WNW,9.2,-,N/A,,Clear,300,2012-12-31 04:35:00
10:55 PM,23.7,18.3,80,30.10,10.0,NW,5.8,-,N/A,,Clear,310,2012-12-31 04:55:00
11:15 PM,23.9,18.3,79,30.10,10.0,WNW,8.1,-,N/A,,Clear,300,2012-12-31 05:15:00
11:35 PM,23.5,18.3,80,30.09,10.0,WNW,6.9,-,N/A,,Scattered Clouds,300,2012-12-31 05:35:00
11:55 PM,23.0,18.1,82,30.09,10.0,NW,9.2,-,N/A,,Scattered Clouds,310,2012-12-31 05:55:00